Time;durP1;ratioP1;P1;durP2;ratioP2;P2;SDS_P1;SDS_P2;PMS_P1;PMS_P2;Temp;Humidity;BMP_temperature;BMP_pressure;BME280_temperature;BME280_humidity;BME280_pressure;Samples;Min_cycle;Max_cycle;Signal;HPM_P1;HPM_P2
2023/02/12 00:00:08;;;;;;;47.60;30.20;;;11.10;99.90;;;;;;5053954;28;20171;-70
2023/02/12 00:02:34;;;;;;;41.43;27.83;;;11.00;99.90;;;;;;5037927;28;20644;-70
2023/02/12 00:04:59;;;;;;;48.43;29.87;;;11.10;99.90;;;;;;5048315;28;20449;-70
2023/02/12 00:07:28;;;;;;;52.90;31.60;;;11.10;99.90;;;;;;5054387;28;20189;-70
2023/02/12 00:09:53;;;;;;;50.63;30.20;;;11.10;99.90;;;;;;5018796;28;20572;-70
2023/02/12 00:12:19;;;;;;;46.63;30.33;;;11.10;99.90;;;;;;5017661;28;20421;-70
2023/02/12 00:14:45;;;;;;;48.30;28.30;;;11.10;99.90;;;;;;5050470;28;20179;-70
2023/02/12 00:17:10;;;;;;;47.57;28.90;;;11.10;99.90;;;;;;5035376;28;20217;-70
2023/02/12 00:19:36;;;;;;;45.47;28.87;;;11.20;99.90;;;;;;5055268;28;20170;-70
2023/02/12 00:22:02;;;;;;;47.80;30.70;;;11.10;99.90;;;;;;5053535;28;20542;-70
2023/02/12 00:24:28;;;;;;;49.90;30.00;;;11.10;99.90;;;;;;5053006;28;20267;-70
2023/02/12 00:26:53;;;;;;;52.07;30.37;;;11.10;99.90;;;;;;5034383;28;20216;-70
2023/02/12 00:29:19;;;;;;;48.73;29.60;;;11.10;99.90;;;;;;5054636;28;20187;-70
2023/02/12 00:31:45;;;;;;;45.23;28.83;;;11.10;99.90;;;;;;5035795;28;20186;-70
2023/02/12 00:34:10;;;;;;;43.60;28.03;;;11.00;99.90;;;;;;5052985;28;20491;-70
2023/02/12 00:36:36;;;;;;;48.17;30.20;;;11.00;99.90;;;;;;5054712;28;20274;-70
2023/02/12 00:39:02;;;;;;;45.53;29.17;;;11.00;99.90;;;;;;5034803;28;20527;-70
2023/02/12 00:41:29;;;;;;;49.77;30.20;;;11.00;99.90;;;;;;5054624;28;20221;-70
2023/02/12 00:43:54;;;;;;;47.77;29.20;;;11.00;99.90;;;;;;5053179;28;20558;-70
2023/02/12 00:46:20;;;;;;;46.57;29.30;;;11.00;99.90;;;;;;5054549;28;20487;-70
2023/02/12 00:48:46;;;;;;;49.90;29.57;;;11.00;99.90;;;;;;5052093;28;20231;-70
2023/02/12 00:51:12;;;;;;;47.77;30.10;;;11.00;99.90;;;;;;5035302;28;20523;-73
2023/02/12 00:53:38;;;;;;;47.90;31.47;;;11.00;99.90;;;;;;5054424;28;20518;-71
2023/02/12 00:56:04;;;;;;;50.53;29.43;;;11.00;99.90;;;;;;5044709;28;20465;-70
2023/02/12 00:58:30;;;;;;;48.33;30.27;;;11.00;99.90;;;;;;5037578;28;20188;-70
2023/02/12 01:00:55;;;;;;;45.03;29.80;;;11.00;99.90;;;;;;5052309;28;20428;-70
2023/02/12 01:03:21;;;;;;;44.93;27.20;;;11.00;99.90;;;;;;5035463;28;20240;-71
2023/02/12 01:05:47;;;;;;;44.90;29.33;;;11.00;99.90;;;;;;5052193;28;20173;-70
2023/02/12 01:08:15;;;;;;;47.33;30.37;;;11.00;99.90;;;;;;5044610;28;20199;-70
2023/02/12 01:10:41;;;;;;;46.50;29.87;;;11.00;99.90;;;;;;5032358;28;20178;-70
2023/02/12 01:13:12;;;;;;;43.27;27.93;;;11.00;99.90;;;;;;5047216;28;20924;-71
2023/02/12 01:15:37;;;;;;;43.17;29.20;;;11.00;99.90;;;;;;5022251;28;20446;-68
2023/02/12 01:18:03;;;;;;;42.97;29.03;;;11.00;99.90;;;;;;5036899;28;20512;-70
2023/02/12 01:20:29;;;;;;;46.43;29.77;;;11.00;99.90;;;;;;5046982;28;20249;-70
2023/02/12 01:22:54;;;;;;;48.47;30.90;;;11.00;99.90;;;;;;5047271;28;20252;-73
2023/02/12 01:25:20;;;;;;;45.80;28.77;;;11.10;99.90;;;;;;5033927;28;20228;-70
2023/02/12 01:27:46;;;;;;;46.97;28.60;;;11.10;99.90;;;;;;5016955;28;20531;-70
2023/02/12 01:30:13;;;;;;;42.13;29.07;;;11.00;99.90;;;;;;5016757;28;20192;-69
2023/02/12 01:32:39;;;;;;;46.53;29.90;;;11.00;99.90;;;;;;5041937;28;20428;-69
2023/02/12 01:35:06;;;;;;;48.20;30.67;;;11.00;99.90;;;;;;5050940;28;20437;-69
2023/02/12 01:37:36;;;;;;;47.63;30.90;;;11.00;99.90;;;;;;5049810;28;20660;-69
2023/02/12 01:40:02;;;;;;;47.60;28.40;;;11.00;99.90;;;;;;5046410;28;20494;-70
2023/02/12 01:42:28;;;;;;;46.60;28.50;;;11.00;99.90;;;;;;5041187;28;20475;-69
2023/02/12 01:45:35;;;;;;;44.10;29.40;;;11.00;99.90;;;;;;5051369;28;20432;-70
2023/02/12 01:48:01;;;;;;;43.80;28.63;;;11.10;99.90;;;;;;4949064;29;20299;-70
2023/02/12 01:50:27;;;;;;;51.03;29.13;;;11.10;99.90;;;;;;5029665;28;20453;-70
2023/02/12 01:52:56;;;;;;;47.10;29.30;;;11.10;99.90;;;;;;5032836;28;20432;-70
2023/02/12 01:55:23;;;;;;;43.97;28.00;;;11.10;99.90;;;;;;5035007;28;20428;-70
2023/02/12 01:57:49;;;;;;;45.80;29.13;;;11.10;99.90;;;;;;5040811;28;20801;-69
2023/02/12 02:00:21;;;;;;;42.30;28.47;;;11.20;99.90;;;;;;5051605;28;20420;-70
2023/02/12 02:02:54;;;;;;;45.47;28.30;;;11.20;99.90;;;;;;5052027;28;20428;-70
2023/02/12 02:05:32;;;;;;;46.47;26.40;;;11.20;99.90;;;;;;5051699;28;20458;-70
2023/02/12 02:07:58;;;;;;;44.70;28.50;;;11.20;99.90;;;;;;5045986;28;20465;-70
2023/02/12 02:10:24;;;;;;;44.50;27.17;;;11.20;99.90;;;;;;5052735;28;20420;-70
2023/02/12 02:15:36;;;;;;;44.77;28.10;;;11.10;99.90;;;;;;5051878;28;20182;-70
2023/02/12 02:18:10;;;;;;;44.10;28.80;;;11.10;99.90;;;;;;5033720;28;20592;-70
2023/02/12 02:20:48;;;;;;;41.90;27.57;;;11.10;99.90;;;;;;5053225;28;20453;-70
2023/02/12 02:23:36;;;;;;;47.20;29.33;;;11.10;99.90;;;;;;5033235;28;20481;-70
2023/02/12 02:26:34;;;;;;;46.80;28.30;;;11.10;99.90;;;;;;5050211;28;20447;-70
2023/02/12 02:29:26;;;;;;;42.80;28.40;;;11.10;99.90;;;;;;5043724;28;20450;-70
2023/02/12 02:32:18;;;;;;;45.23;27.60;;;11.00;99.90;;;;;;5052918;28;20395;-70
2023/02/12 02:35:20;;;;;;;48.50;28.20;;;11.00;99.90;;;;;;5045994;28;20450;-75
2023/02/12 02:37:58;;;;;;;44.37;28.23;;;11.00;99.90;;;;;;5048716;28;20545;-70
2023/02/12 02:40:54;;;;;;;45.23;29.00;;;11.00;99.90;;;;;;5050977;28;20450;-70
2023/02/12 02:43:30;;;;;;;40.20;26.40;;;11.00;99.90;;;;;;5029054;28;20449;-70
2023/02/12 02:46:11;;;;;;;44.00;27.93;;;11.00;99.90;;;;;;5052725;28;20411;-70
2023/02/12 02:48:42;;;;;;;43.23;27.07;;;11.00;99.90;;;;;;5035509;28;20441;-70
2023/02/12 02:51:22;;;;;;;40.90;27.17;;;11.00;99.90;;;;;;5040549;28;20907;-70
2023/02/12 02:53:53;;;;;;;40.20;25.80;;;11.00;99.90;;;;;;5052573;28;20412;-75
2023/02/12 02:56:22;;;;;;;38.87;27.10;;;11.10;99.90;;;;;;5031957;28;21131;-70
2023/02/12 02:59:03;;;;;;;43.23;27.33;;;11.10;99.90;;;;;;5033076;28;20477;-70
2023/02/12 03:01:38;;;;;;;40.13;27.47;;;11.10;99.90;;;;;;5035588;28;20518;-70
2023/02/12 03:04:06;;;;;;;42.07;26.73;;;11.10;99.90;;;;;;5051747;28;20886;-71
2023/02/12 03:06:55;;;;;;;39.00;26.83;;;11.10;99.90;;;;;;5051006;28;20438;-70
2023/02/12 03:09:36;;;;;;;38.90;27.50;;;11.10;99.90;;;;;;5050307;28;20443;-70
2023/02/12 03:12:13;;;;;;;39.27;26.13;;;11.10;99.90;;;;;;5053956;28;20405;-70
2023/02/12 03:14:44;;;;;;;44.47;26.67;;;11.10;99.90;;;;;;5055179;28;20436;-70
2023/02/12 03:17:17;;;;;;;44.20;26.90;;;11.10;99.90;;;;;;5044140;28;20468;-70
2023/02/12 03:19:52;;;;;;;42.77;28.80;;;11.10;99.90;;;;;;5036075;28;20408;-73
2023/02/12 03:22:26;;;;;;;42.43;27.17;;;11.10;99.90;;;;;;5035731;28;20767;-70
2023/02/12 03:25:13;;;;;;;42.33;27.30;;;11.10;99.90;;;;;;5049294;28;20426;-70
2023/02/12 03:27:47;;;;;;;40.37;26.10;;;11.10;99.90;;;;;;5054993;28;20443;-70
2023/02/12 03:30:13;;;;;;;44.17;25.57;;;11.10;99.90;;;;;;5054636;28;20442;-70
2023/02/12 03:33:08;;;;;;;48.07;29.10;;;11.10;99.90;;;;;;5055079;28;20412;-69
2023/02/12 03:35:41;;;;;;;37.67;26.00;;;11.10;99.90;;;;;;5035868;28;20492;-70
2023/02/12 03:38:30;;;;;;;38.10;25.50;;;11.10;99.90;;;;;;5043180;28;20525;-70
2023/02/12 03:41:05;;;;;;;38.90;25.20;;;11.10;99.90;;;;;;5054118;28;20812;-70
2023/02/12 03:43:49;;;;;;;43.63;27.37;;;11.10;99.90;;;;;;5055557;28;20904;-70
2023/02/12 03:46:42;;;;;;;36.90;25.40;;;11.00;99.90;;;;;;5035515;28;20436;-70
2023/02/12 03:49:37;;;;;;;46.43;27.10;;;11.10;99.90;;;;;;5049142;28;20438;-69
2023/02/12 03:52:04;;;;;;;41.70;27.90;;;11.00;99.90;;;;;;5051666;28;20460;-70
2023/02/12 03:54:30;;;;;;;38.47;25.93;;;11.00;99.90;;;;;;5054291;28;20420;-69
2023/02/12 03:57:10;;;;;;;41.13;25.70;;;11.00;99.90;;;;;;5055722;28;20487;-69
2023/02/12 03:59:38;;;;;;;40.87;25.70;;;11.00;99.90;;;;;;5054489;28;20466;-69
2023/02/12 04:02:07;;;;;;;43.00;26.87;;;11.00;99.90;;;;;;5054834;28;20440;-70
2023/02/12 04:04:33;;;;;;;41.07;25.40;;;11.00;99.90;;;;;;5054460;28;20439;-69
2023/02/12 04:06:59;;;;;;;42.93;28.33;;;11.00;99.90;;;;;;5044825;28;20431;-70
2023/02/12 04:09:27;;;;;;;39.43;25.87;;;11.00;99.90;;;;;;5034645;28;20434;-70
2023/02/12 04:12:29;;;;;;;42.20;28.37;;;10.90;99.90;;;;;;5051986;28;20428;-70
2023/02/12 04:15:36;;;;;;;39.50;26.27;;;10.90;99.90;;;;;;5054147;28;20435;-69
2023/02/12 04:18:02;;;;;;;39.67;26.20;;;10.90;99.90;;;;;;5053970;28;20465;-70
2023/02/12 04:21:06;;;;;;;41.63;27.70;;;10.90;99.90;;;;;;5053615;28;20418;-72
2023/02/12 04:23:51;;;;;;;43.47;27.40;;;10.90;99.90;;;;;;5033892;28;20194;-70
2023/02/12 04:26:38;;;;;;;44.90;26.53;;;10.80;99.90;;;;;;5048760;28;20527;-70
2023/02/12 04:29:47;;;;;;;42.70;26.37;;;10.80;99.90;;;;;;5053653;28;20981;-70
2023/02/12 04:32:30;;;;;;;38.73;25.87;;;10.80;99.90;;;;;;5048255;28;20440;-69
2023/02/12 04:35:19;;;;;;;42.63;25.90;;;10.80;99.90;;;;;;5044519;28;20480;-70
2023/02/12 04:37:52;;;;;;;42.47;25.07;;;10.80;99.90;;;;;;5034713;28;20493;-70
2023/02/12 04:40:20;;;;;;;39.07;27.80;;;10.80;99.90;;;;;;5033103;28;20430;-70
2023/02/12 04:42:48;;;;;;;36.47;26.40;;;10.80;99.90;;;;;;5050982;28;20437;-70
2023/02/12 04:45:19;;;;;;;43.73;26.63;;;10.90;99.90;;;;;;5020830;28;20475;-70
2023/02/12 04:47:46;;;;;;;35.33;23.70;;;10.80;99.90;;;;;;5053782;28;20444;-70
2023/02/12 04:50:12;;;;;;;38.83;26.50;;;10.80;99.90;;;;;;5051931;28;20424;-70
2023/02/12 04:52:37;;;;;;;38.33;25.97;;;10.80;99.90;;;;;;5053473;28;20420;-70
2023/02/12 04:55:03;;;;;;;41.00;24.70;;;10.80;99.90;;;;;;5054541;28;20415;-70
2023/02/12 04:57:29;;;;;;;33.47;24.67;;;10.80;99.90;;;;;;5052284;28;20205;-70
2023/02/12 04:59:55;;;;;;;43.23;26.87;;;10.80;99.90;;;;;;5053099;28;20177;-70
2023/02/12 05:02:20;;;;;;;36.30;25.03;;;10.80;99.90;;;;;;5053980;28;20168;-70
2023/02/12 05:04:49;;;;;;;38.20;25.43;;;10.80;99.90;;;;;;5053131;28;20559;-70
2023/02/12 05:07:14;;;;;;;39.27;25.23;;;10.80;99.90;;;;;;5052712;28;20194;-70
2023/02/12 05:09:40;;;;;;;31.83;22.93;;;10.80;99.90;;;;;;5053975;28;20419;-70
2023/02/12 05:12:06;;;;;;;34.10;23.00;;;10.70;99.90;;;;;;5037050;28;20205;-70
2023/02/12 05:14:32;;;;;;;43.60;24.83;;;10.70;99.90;;;;;;5038093;28;20177;-70
2023/02/12 05:16:57;;;;;;;34.90;24.50;;;10.70;99.90;;;;;;5053804;28;20974;-71
2023/02/12 05:19:23;;;;;;;35.30;24.00;;;10.70;99.90;;;;;;5052295;28;20195;-72
2023/02/12 05:21:50;;;;;;;41.33;26.73;;;10.70;99.90;;;;;;5052797;28;20634;-70
2023/02/12 05:24:16;;;;;;;35.67;24.47;;;10.70;99.90;;;;;;5053593;28;20171;-70
2023/02/12 05:26:44;;;;;;;37.97;25.10;;;10.70;99.90;;;;;;5036251;28;20433;-70
2023/02/12 05:29:09;;;;;;;37.10;25.10;;;10.70;99.90;;;;;;5043928;28;20432;-71
2023/02/12 05:31:35;;;;;;;37.00;25.53;;;10.70;99.90;;;;;;5034603;28;20429;-74
2023/02/12 05:34:01;;;;;;;34.67;24.37;;;10.60;99.90;;;;;;5052963;28;20622;-70
2023/02/12 05:36:27;;;;;;;34.83;23.97;;;10.70;99.90;;;;;;5049938;28;20204;-70
2023/02/12 05:38:56;;;;;;;36.87;24.77;;;10.60;99.90;;;;;;5034151;28;20180;-70
2023/02/12 05:41:24;;;;;;;32.60;23.47;;;10.60;99.90;;;;;;5051779;28;20455;-70
2023/02/12 05:43:51;;;;;;;37.93;25.30;;;10.60;99.90;;;;;;5053585;28;20418;-70
2023/02/12 05:46:19;;;;;;;42.30;24.93;;;10.60;99.90;;;;;;5024593;28;20441;-70
2023/02/12 05:48:45;;;;;;;38.80;24.90;;;10.60;99.90;;;;;;5033252;28;20740;-75
2023/02/12 05:51:16;;;;;;;36.77;25.93;;;10.60;99.90;;;;;;5052204;28;20420;-72
2023/02/12 05:53:42;;;;;;;36.53;24.10;;;10.60;99.90;;;;;;5052476;28;20776;-70
2023/02/12 05:56:15;;;;;;;38.87;25.13;;;10.60;99.90;;;;;;5052164;28;20458;-70
2023/02/12 05:58:43;;;;;;;36.60;24.17;;;10.60;99.90;;;;;;5053539;28;20408;-69
2023/02/12 06:01:12;;;;;;;43.50;27.10;;;10.70;99.90;;;;;;5052048;28;20428;-70
2023/02/12 06:03:37;;;;;;;37.77;24.87;;;10.70;99.90;;;;;;5051913;28;20434;-70
2023/02/12 06:06:03;;;;;;;41.87;24.33;;;10.70;99.90;;;;;;5051754;28;20405;-70
2023/02/12 06:08:29;;;;;;;42.63;24.90;;;10.70;99.90;;;;;;5047369;28;20179;-69
2023/02/12 06:10:58;;;;;;;42.00;24.40;;;10.70;99.90;;;;;;5051571;28;20985;-70
2023/02/12 06:13:24;;;;;;;37.83;23.13;;;10.70;99.90;;;;;;5051913;28;20175;-74
2023/02/12 06:15:50;;;;;;;40.47;25.67;;;10.70;99.90;;;;;;5051785;28;20541;-70
2023/02/12 06:18:18;;;;;;;41.07;24.57;;;10.70;99.90;;;;;;5051190;28;20697;-70
2023/02/12 06:20:43;;;;;;;39.93;25.03;;;10.80;99.90;;;;;;5052051;28;20563;-70
2023/02/12 06:23:09;;;;;;;46.63;25.60;;;10.80;99.90;;;;;;5051720;28;20420;-70
2023/02/12 06:25:35;;;;;;;36.57;24.73;;;10.80;99.90;;;;;;5047430;28;20176;-70
2023/02/12 06:28:00;;;;;;;38.53;25.27;;;10.80;99.90;;;;;;5051926;28;20184;-71
2023/02/12 06:30:26;;;;;;;35.27;23.70;;;10.80;99.90;;;;;;5051804;28;20174;-70
2023/02/12 06:32:52;;;;;;;35.70;25.17;;;10.80;99.90;;;;;;5024154;28;20174;-70
2023/02/12 06:35:17;;;;;;;34.37;23.20;;;10.80;99.90;;;;;;5039202;28;20179;-70
2023/02/12 06:37:43;;;;;;;36.83;24.17;;;10.90;99.90;;;;;;5052023;28;20249;-72
2023/02/12 06:40:09;;;;;;;35.90;24.40;;;10.80;99.90;;;;;;5039957;28;20184;-69
2023/02/12 06:42:35;;;;;;;33.50;23.77;;;10.80;99.90;;;;;;5050056;28;20219;-69
2023/02/12 06:45:02;;;;;;;34.60;22.87;;;10.80;99.90;;;;;;5049844;28;20467;-70
2023/02/12 06:47:27;;;;;;;36.60;22.30;;;10.80;99.90;;;;;;5040779;28;20193;-70
2023/02/12 06:49:53;;;;;;;34.20;22.63;;;10.80;99.90;;;;;;5045625;28;20449;-70
2023/02/12 06:52:20;;;;;;;34.40;23.43;;;10.80;99.90;;;;;;5033048;28;20169;-71
2023/02/12 06:54:46;;;;;;;37.20;24.87;;;10.80;99.90;;;;;;5052437;28;20609;-70
2023/02/12 06:57:11;;;;;;;37.27;24.40;;;10.90;99.90;;;;;;5037270;28;20465;-70
2023/02/12 06:59:37;;;;;;;34.30;23.00;;;10.80;99.90;;;;;;5013777;28;20905;-70
2023/02/12 07:02:03;;;;;;;38.97;24.07;;;10.80;99.90;;;;;;5033020;28;20245;-70
2023/02/12 07:04:29;;;;;;;33.93;23.77;;;10.70;99.90;;;;;;5035373;28;20181;-70
2023/02/12 07:06:54;;;;;;;37.03;25.07;;;10.80;99.90;;;;;;5013173;28;20589;-72
2023/02/12 07:09:20;;;;;;;35.03;24.67;;;10.70;99.90;;;;;;5036196;28;20520;-73
2023/02/12 07:11:46;;;;;;;35.27;25.10;;;10.80;99.90;;;;;;5042857;28;20243;-72
2023/02/12 07:14:15;;;;;;;38.43;25.30;;;10.80;99.90;;;;;;5014811;28;20186;-73
2023/02/12 07:16:41;;;;;;;42.70;26.60;;;10.80;99.90;;;;;;5032180;28;20218;-72
2023/02/12 07:19:10;;;;;;;40.93;27.20;;;10.80;99.90;;;;;;5043558;28;20439;-72
2023/02/12 07:21:36;;;;;;;41.97;26.60;;;10.90;99.90;;;;;;5050337;28;20435;-72
2023/02/12 07:24:01;;;;;;;38.37;25.07;;;10.90;99.90;;;;;;5044161;28;20427;-72
2023/02/12 07:26:27;;;;;;;40.97;27.13;;;10.90;99.90;;;;;;5033158;28;20193;-72
2023/02/12 07:28:53;;;;;;;42.20;27.80;;;10.90;99.90;;;;;;5042808;28;20231;-72
2023/02/12 07:31:21;;;;;;;40.90;27.13;;;11.00;99.90;;;;;;5046067;28;20177;-72
2023/02/12 07:33:47;;;;;;;37.87;26.40;;;11.00;99.90;;;;;;5042396;28;20214;-72
2023/02/12 07:36:16;;;;;;;43.40;27.40;;;11.00;99.90;;;;;;5048652;28;20971;-75
2023/02/12 07:38:42;;;;;;;44.00;27.63;;;11.00;99.90;;;;;;5046340;28;20488;-73
2023/02/12 07:41:13;;;;;;;39.17;26.20;;;11.00;99.90;;;;;;5049788;28;20468;-72
2023/02/12 07:43:43;;;;;;;42.00;26.27;;;11.00;99.90;;;;;;5041871;28;20432;-72
2023/02/12 07:46:18;;;;;;;40.13;26.57;;;11.00;99.90;;;;;;5050923;28;20460;-72
2023/02/12 07:48:44;;;;;;;39.60;25.53;;;11.10;99.90;;;;;;5049634;28;20958;-72
2023/02/12 07:51:12;;;;;;;39.10;26.13;;;11.10;99.90;;;;;;5051913;28;20422;-72
2023/02/12 07:53:39;;;;;;;33.67;24.13;;;11.10;99.90;;;;;;5049999;28;20420;-72
2023/02/12 07:56:17;;;;;;;37.63;23.10;;;11.20;99.90;;;;;;5035852;28;20416;-72
2023/02/12 07:58:44;;;;;;;31.53;22.00;;;11.20;99.90;;;;;;5053332;28;20757;-72
2023/02/12 08:01:31;;;;;;;36.23;22.13;;;11.20;99.90;;;;;;5050764;28;20514;-75
2023/02/12 08:04:00;;;;;;;33.77;22.00;;;11.20;99.90;;;;;;5054357;28;20514;-72
2023/02/12 08:06:29;;;;;;;30.93;21.13;;;11.30;99.90;;;;;;5054738;28;20715;-73
2023/02/12 08:08:57;;;;;;;33.60;23.03;;;11.30;99.90;;;;;;5034975;28;20511;-73
2023/02/12 08:11:24;;;;;;;32.00;21.33;;;11.30;99.90;;;;;;5052395;28;20433;-74
2023/02/12 08:13:50;;;;;;;27.90;19.70;;;11.30;99.90;;;;;;5054484;28;20808;-73
2023/02/12 08:16:22;;;;;;;26.83;20.03;;;11.40;99.90;;;;;;5050892;28;20510;-74
2023/02/12 08:18:48;;;;;;;25.63;18.17;;;11.40;99.90;;;;;;5052902;28;20470;-74
2023/02/12 08:21:17;;;;;;;25.13;18.33;;;11.40;99.90;;;;;;5045577;28;20439;-72
2023/02/12 08:23:43;;;;;;;23.90;17.40;;;11.40;99.90;;;;;;5054312;28;20514;-73
2023/02/12 08:26:27;;;;;;;26.83;17.53;;;11.40;99.90;;;;;;5053654;28;20523;-73
2023/02/12 08:28:56;;;;;;;31.00;18.37;;;11.40;99.90;;;;;;5035975;28;21031;-73
2023/02/12 08:31:33;;;;;;;27.33;17.40;;;11.50;99.90;;;;;;5054009;28;20468;-73
2023/02/12 08:34:00;;;;;;;28.63;18.10;;;11.50;99.90;;;;;;5034669;28;20479;-73
2023/02/12 08:36:28;;;;;;;30.80;19.20;;;11.50;99.90;;;;;;5033613;28;20479;-73
2023/02/12 08:39:00;;;;;;;29.30;20.70;;;11.50;99.90;;;;;;5035281;28;20433;-73
2023/02/12 08:41:28;;;;;;;33.60;20.40;;;11.60;99.90;;;;;;5050733;28;20472;-73
2023/02/12 08:43:56;;;;;;;29.00;21.83;;;11.60;99.90;;;;;;5055043;28;20459;-73
2023/02/12 08:46:25;;;;;;;29.60;20.87;;;11.90;99.90;;;;;;5052694;28;20442;-73
2023/02/12 08:49:08;;;;;;;29.53;21.30;;;12.30;99.90;;;;;;5035533;28;20425;-71
2023/02/12 08:51:36;;;;;;;28.33;20.63;;;12.80;99.90;;;;;;5053762;28;20455;-70
2023/02/12 08:54:04;;;;;;;32.53;21.80;;;13.20;99.90;;;;;;5053620;28;20434;-70
2023/02/12 08:56:32;;;;;;;29.63;20.03;;;13.50;99.90;;;;;;5045335;28;20475;-70
2023/02/12 08:58:58;;;;;;;28.70;20.50;;;13.90;99.90;;;;;;5036435;28;20461;-70
2023/02/12 09:01:27;;;;;;;26.30;20.20;;;14.20;99.90;;;;;;5033485;28;20446;-70
2023/02/12 09:03:53;;;;;;;31.40;20.80;;;14.40;99.90;;;;;;5039495;28;20427;-71
2023/02/12 09:06:21;;;;;;;28.83;21.10;;;14.60;99.90;;;;;;5023206;28;20839;-73
2023/02/12 09:08:47;;;;;;;27.90;19.53;;;14.80;99.90;;;;;;5042371;28;20417;-71
2023/02/12 09:11:15;;;;;;;33.23;22.47;;;15.00;99.90;;;;;;5025298;28;20439;-71
2023/02/12 09:13:42;;;;;;;28.47;21.10;;;15.20;99.90;;;;;;5042831;28;20427;-72
2023/02/12 09:16:08;;;;;;;25.80;18.40;;;15.40;99.90;;;;;;5041935;28;20560;-71
2023/02/12 09:18:35;;;;;;;26.00;21.93;;;15.50;99.90;;;;;;5041998;28;20859;-71
2023/02/12 09:21:07;;;;;;;26.57;18.70;;;15.60;99.90;;;;;;5024234;28;20433;-73
2023/02/12 09:23:33;;;;;;;26.53;19.77;;;15.70;99.90;;;;;;5039217;28;20403;-72
2023/02/12 09:25:59;;;;;;;24.50;19.40;;;15.80;99.40;;;;;;5040016;28;20435;-72
2023/02/12 09:28:25;;;;;;;24.90;18.50;;;15.80;99.40;;;;;;5039066;28;20418;-72
2023/02/12 09:30:50;;;;;;;26.80;19.20;;;15.90;98.50;;;;;;5034099;28;20600;-69
2023/02/12 09:33:16;;;;;;;305.17;212.87;;;15.90;96.90;;;;;;5036387;28;20173;-68
2023/02/12 09:35:42;;;;;;;317.60;241.33;;;15.70;96.00;;;;;;5035720;28;20301;-69
2023/02/12 09:38:08;;;;;;;73.57;50.20;;;15.50;96.40;;;;;;5040027;28;20273;-69
2023/02/12 09:40:43;;;;;;;36.37;24.23;;;15.20;96.80;;;;;;5044848;28;20221;-69
2023/02/12 09:43:17;;;;;;;33.73;21.87;;;15.00;97.30;;;;;;5045631;28;20609;-70
2023/02/12 09:45:52;;;;;;;27.00;20.40;;;14.70;98.30;;;;;;5023206;28;20437;-69
2023/02/12 09:48:34;;;;;;;29.33;19.53;;;14.50;99.00;;;;;;5042772;28;20523;-68
2023/02/12 09:51:06;;;;;;;27.57;19.37;;;14.30;99.80;;;;;;5020731;28;20435;-69
2023/02/12 09:53:36;;;;;;;25.40;18.33;;;14.10;99.90;;;;;;5038299;28;20425;-69
2023/02/12 09:56:05;;;;;;;26.63;19.70;;;14.00;99.90;;;;;;5015708;28;20851;-69
2023/02/12 09:58:58;;;;;;;34.47;21.83;;;13.80;99.90;;;;;;5036411;28;20439;-70
2023/02/12 10:01:27;;;;;;;30.23;19.77;;;13.70;99.90;;;;;;5038932;28;20528;-77
2023/02/12 10:03:53;;;;;;;32.40;20.37;;;13.60;99.90;;;;;;5036432;28;20422;-69
2023/02/12 10:06:34;;;;;;;27.47;18.87;;;13.50;99.90;;;;;;5038197;28;20431;-70
2023/02/12 10:09:16;;;;;;;33.20;22.03;;;13.40;99.90;;;;;;5022558;28;20435;-69
2023/02/12 10:12:11;;;;;;;28.17;19.47;;;13.30;99.90;;;;;;5032080;28;20441;-69
2023/02/12 10:14:55;;;;;;;27.50;20.07;;;13.20;99.90;;;;;;5027469;28;20432;-69
2023/02/12 10:17:32;;;;;;;27.60;21.83;;;13.20;99.90;;;;;;5043182;28;20454;-69
2023/02/12 10:20:20;;;;;;;31.73;21.20;;;13.10;99.90;;;;;;5038216;28;20436;-69
2023/02/12 10:23:20;;;;;;;27.23;20.20;;;13.10;99.90;;;;;;5038476;28;20733;-76
2023/02/12 10:26:12;;;;;;;30.03;19.47;;;13.10;99.90;;;;;;5019555;28;21123;-68
2023/02/12 10:28:40;;;;;;;30.87;19.90;;;13.00;99.90;;;;;;5038206;28;20421;-68
2023/02/12 10:31:50;;;;;;;28.07;19.00;;;13.00;99.90;;;;;;5047029;28;20419;-68
2023/02/12 10:34:23;;;;;;;30.93;19.57;;;13.00;99.90;;;;;;4987000;28;20438;-70
2023/02/12 10:36:54;;;;;;;30.30;19.30;;;12.90;99.90;;;;;;5035719;28;20486;-73
2023/02/12 10:39:30;;;;;;;27.10;19.43;;;13.00;99.90;;;;;;5036559;28;20512;-69
2023/02/12 10:42:20;;;;;;;26.30;19.50;;;13.00;99.90;;;;;;5037147;28;20800;-69
2023/02/12 10:44:46;;;;;;;27.30;20.50;;;12.90;99.90;;;;;;5032775;28;20497;-70
2023/02/12 10:47:19;;;;;;;27.80;18.80;;;12.90;99.90;;;;;;5036302;28;20440;-70
2023/02/12 10:49:51;;;;;;;554.00;331.53;;;12.90;99.90;;;;;;5018845;28;20219;-69
2023/02/12 10:52:28;;;;;;;218.37;129.30;;;12.90;99.90;;;;;;5035928;28;20404;-69
2023/02/12 10:54:54;;;;;;;42.80;29.20;;;12.90;99.90;;;;;;5029554;28;20492;-69
2023/02/12 10:57:20;;;;;;;25.80;18.20;;;12.90;99.90;;;;;;5037656;28;20475;-78
2023/02/12 10:59:48;;;;;;;28.83;19.37;;;12.90;99.90;;;;;;5033846;28;20215;-71
2023/02/12 11:02:25;;;;;;;24.83;18.70;;;12.90;99.90;;;;;;5030252;28;20179;-72
2023/02/12 11:04:53;;;;;;;30.27;20.10;;;12.90;99.90;;;;;;5033885;28;21036;-72
2023/02/12 11:07:20;;;;;;;28.53;20.20;;;13.00;99.90;;;;;;5036075;28;20503;-71
2023/02/12 11:09:47;;;;;;;27.43;19.37;;;13.00;99.90;;;;;;5038257;28;20442;-70
2023/02/12 11:12:30;;;;;;;27.37;19.20;;;13.10;99.90;;;;;;5033709;28;20432;-70
2023/02/12 11:15:07;;;;;;;29.87;19.20;;;13.00;99.90;;;;;;5032587;28;20429;-70
2023/02/12 11:17:36;;;;;;;33.93;21.17;;;13.10;99.90;;;;;;5035966;28;20453;-71
2023/02/12 11:20:20;;;;;;;30.70;20.80;;;13.10;99.90;;;;;;5021053;28;20499;-72
2023/02/12 11:22:53;;;;;;;24.67;17.97;;;13.10;99.90;;;;;;5020776;28;20483;-70
2023/02/12 11:25:19;;;;;;;28.83;19.50;;;13.20;99.90;;;;;;5032237;28;20423;-75
2023/02/12 11:28:17;;;;;;;30.40;20.30;;;13.30;99.90;;;;;;5037671;28;20433;-74
2023/02/12 11:30:57;;;;;;;30.80;20.33;;;13.20;99.90;;;;;;5035735;28;20441;-73
2023/02/12 11:33:28;;;;;;;32.97;22.13;;;13.20;99.90;;;;;;5021867;28;20418;-72
2023/02/12 11:35:57;;;;;;;32.37;21.83;;;13.10;99.90;;;;;;5039083;28;20442;-72
2023/02/12 11:38:30;;;;;;;662.47;422.47;;;13.10;99.90;;;;;;5032517;28;20442;-74
2023/02/12 11:41:01;;;;;;;114.87;67.80;;;13.10;99.90;;;;;;5036999;28;20469;-73
2023/02/12 11:43:29;;;;;;;39.73;27.80;;;13.10;99.90;;;;;;5039053;28;20457;-81
2023/02/12 11:45:58;;;;;;;32.77;22.80;;;13.10;99.90;;;;;;5042634;28;20458;-71
2023/02/12 11:48:34;;;;;;;28.20;20.53;;;13.10;99.90;;;;;;5039363;28;20447;-69
2023/02/12 11:51:03;;;;;;;32.07;21.03;;;13.20;99.90;;;;;;5029881;28;20434;-72
2023/02/12 11:53:35;;;;;;;32.03;21.90;;;13.10;99.90;;;;;;5038489;28;20426;-80
2023/02/12 11:56:15;;;;;;;31.90;21.63;;;13.10;99.90;;;;;;5046319;28;20897;-73
2023/02/12 11:58:41;;;;;;;33.40;21.27;;;13.10;99.90;;;;;;5030606;28;20531;-70
2023/02/12 12:01:15;;;;;;;33.63;20.57;;;13.10;99.90;;;;;;5030676;28;20773;-74
2023/02/12 12:03:59;;;;;;;27.10;21.47;;;13.10;99.90;;;;;;5033284;28;20434;-70
2023/02/12 12:06:48;;;;;;;28.10;18.63;;;13.10;99.90;;;;;;5043680;28;20452;-71
2023/02/12 12:09:40;;;;;;;27.03;19.70;;;13.20;99.90;;;;;;5032014;28;20475;-69
2023/02/12 12:12:27;;;;;;;31.03;19.70;;;13.10;99.90;;;;;;5051057;28;20810;-71
2023/02/12 12:20:51;;;;;;;27.00;19.53;;;13.10;99.90;;;;;;4999050;28;20434;-74
2023/02/12 12:23:23;;;;;;;30.53;20.37;;;13.10;99.90;;;;;;5032017;28;20443;-71
2023/02/12 12:25:54;;;;;;;30.90;20.27;;;13.10;99.90;;;;;;5031041;28;20518;-70
2023/02/12 12:28:46;;;;;;;29.13;19.57;;;13.10;99.90;;;;;;5033508;28;20448;-71
2023/02/12 12:31:21;;;;;;;30.10;20.17;;;13.10;99.90;;;;;;5023799;28;20505;-70
2023/02/12 12:33:52;;;;;;;28.93;20.50;;;13.00;99.90;;;;;;5034943;28;20476;-70
2023/02/12 12:36:33;;;;;;;33.17;21.20;;;12.90;99.90;;;;;;5038861;28;20824;-70
2023/02/12 12:39:18;;;;;;;30.30;19.87;;;12.90;99.90;;;;;;5039667;28;20462;-69
2023/02/12 12:42:02;;;;;;;31.77;21.73;;;12.80;99.90;;;;;;5047107;28;20475;-77
2023/02/12 12:44:47;;;;;;;35.17;22.07;;;12.90;99.90;;;;;;5029591;28;20440;-79
2023/02/12 12:47:39;;;;;;;510.17;329.53;;;12.90;99.90;;;;;;5024349;28;20453;-69
2023/02/12 12:50:19;;;;;;;46.57;29.83;;;12.90;99.90;;;;;;5035008;28;20438;-74
2023/02/12 12:53:11;;;;;;;30.63;19.50;;;12.90;99.90;;;;;;5048000;28;20444;-72
2023/02/12 12:55:57;;;;;;;27.23;20.47;;;12.80;99.90;;;;;;5034352;28;20925;-71
2023/02/12 12:58:50;;;;;;;28.70;20.03;;;12.60;99.90;;;;;;5040907;28;20957;-75